Arbyrd, MO

10:05 AM CDT on September 30, 2014 (GMT -0500)
Corning | Change Station
CLOSE
Current Station
Airport
Location: Corning,
Elevation: 292 ft
Nearby Weather Stations

Elev 292 ft 36.40 °N, 90.65 °W | Updated 10 minutes ago

Clear
Clear
72 °F
Feels Like 72 °F
N
4
Wind Variable Wind from NNE
Gusts 2 mph

Today
High -- | Low -- °F
--% Chance of Precip.
Yesterday
High -- | Low -- °F
Precip. -- in
6:55 AM 6:45 PM
Waxing Crescent, 37% visible
Pressure 29.97 in
Visibility 8.0 miles
Clouds
Dew Point 61 °F
Humidity 69%
Rainfall 0.00 in
Snow Depth Not available.
UV Not available.
Pollen 5.40 out of 12
Air Quality Not available.
Flu Activity Not available.
METAR K4M9 301455Z AUTO 02003KT 8SM 22/16 A2997 RMK AO2

More Conditions Fewer Conditions

Pressure 29.97 in
Visibility 8.0 miles
Clouds
Dew Point 61 °F
Humidity 69%
Rainfall 0.00 in
Snow Depth Not available.
UV Not available.
Pollen 5.40 out of 12
Air Quality Not available.
Flu Activity Not available.
METAR K4M9 301455Z AUTO 02003KT 8SM 22/16 A2997 RMK AO2

More Conditions Fewer Conditions

10-Day Weather Forecast

Almanac

Astronomy

Sep. 30, 2014 Rise Set
Actual Time 6:55 AM CDT 6:45 PM CDT
Civil Twilight 6:29 AM CDT 7:11 PM CDT
Nautical Twilight 5:59 AM CDT 7:41 PM CDT
Astronomical Twilight 5:29 AM CDT 8:11 PM CDT
Moon 12:55 PM CDT 11:24 PM CDT
Length of Visible Light 12h 41m
Length of Day
11h 50m
Tomorrow will be 2m 15s shorter.
Waxing Crescent, 37% of the Moon is Illuminated
Today
Waxing Crescent
Oct 1
First Quarter
Oct 8
Full
Oct 15
Last Quarter
Oct 23
New

Today's Extremes

State Highs State Lows

Community

WunderPhotos

Upload Photos

1,757,641 photos uploaded!

WunderBlogs® & News

By Dr. Jeff Masters
Director of Meteorology, Weather Underground
By Kari Strenfel
Meteorologist, Weather Underground
By Christopher C. Burt
Weather Historian, Weather Underground
September 30, 2014
September 30, 2014
September 30, 2014

Nearby

Snow Depth

Station Depth Elevation
No new snow has been reported.

Earthquake Activity

City Distance Mag. Time & Date
No recent earthquake activity has been reported nearby.
Minimum magnitude displayed is 2.5.

Coastal Water Temperatures

Place Temperature
No Stations Reporting

Nearby Weather Stations